Weather at Pulai Airport

Public forecast

Using degrees Celsius for public forecast. Weather courtesy of forecast.io.

Closest aviation weather report (METAR) to Pulai Airport

Closest report is Hang Nadim International Airport, 78.9 nm (146.2 km) NE.

2024/05/24 06:00 (retrieved 44 minutes ago)

WIDD 240600Z 15004KT 9999 FEW014 30/26 Q1009 NOSIG

Closest aviation forecast (TAF) to Pulai Airport

Closest forecast is Hang Nadim International Airport, 78.9 nm (146.2 km) NE.

2024/05/24 06:00 (retrieved 44 minutes ago)

TAF WIDD 240500Z 2406/2506 16006KT 9000 SCT014 TEMPO 2406/2408 5000 RA